Porto, Portugal

10:06 PM WET on December 06, 2016 (GMT +0000)
Francisco Sa Carneiro | | Change Station

Elev 253 ft 41.23 °N, 8.68 °W | Updated 36 minutes ago

Clear
Clear
57 °F
Feels Like 57 °F
N
9
Wind Variable Wind from ESE

Today
High -- | Low -- °F
--% Chance of Precip.
Yesterday
High -- | Low -- °F
Precip. -- in
Pressure 30.30 in
Visibility -9999.0 miles
Clouds
Dew Point 50 °F
Humidity 77%
Rainfall 0.00 in
Snow Depth Not available.
7:46 AM 5:05 PM
Waxing Crescent, 45% visible
METAR LPPR 062130Z 11008KT CAVOK 14/10 Q1026
Pressure 30.30 in
Visibility -9999.0 miles
Clouds
Dew Point 50 °F
Humidity 77%
Rainfall 0.00 in
Snow Depth Not available.
7:46 AM 5:05 PM
Waxing Crescent, 45% visible
METAR LPPR 062130Z 11008KT CAVOK 14/10 Q1026

10-Day Weather Forecast

×

Almanac

Astronomy

Dec. 06, 2016 Rise Set
Actual Time
Civil Twilight
Nautical Twilight
Astronomical Twilight
Moon
Length of Visible Light
Length of Day
Tomorrow will be .
, % of the Moon is Illuminated

Today's Extremes

Country Highs Country Lows

Community

WunderPhotos

Upload Photos

1,956,037 photos uploaded!

WunderBlog® & News

Nearby

Air Quality

  Air Quality AQ Index Pollutant
Not available.

Snow Depth

Station Depth Elevation

Earthquake Activity

City Distance Mag. Time & Date
Minimum magnitude displayed is 2.5.

Coastal Water Temperatures

Place Temperature

Stations

Nearby Weather Stations

Station Location Temp. Windchill Dew Point Humidity Wind Precip. Elev Updated Type